createdAt,value
2023-04-29T00:01:35.617Z,4.30
2023-04-29T00:04:03.086Z,4.30
2023-04-29T00:06:30.584Z,4.50
2023-04-29T00:08:58.006Z,4.70
2023-04-29T00:11:25.310Z,4.80
2023-04-29T00:13:52.706Z,4.90
2023-04-29T00:16:20.150Z,5.60
2023-04-29T00:18:47.428Z,4.50
2023-04-29T00:21:14.695Z,5.30
2023-04-29T00:23:41.858Z,5.30
2023-04-29T00:26:09.234Z,5.30
2023-04-29T00:28:36.586Z,4.80
2023-04-29T00:31:03.927Z,4.70
2023-04-29T00:33:31.147Z,4.60
2023-04-29T00:35:58.360Z,4.70
2023-04-29T00:38:25.622Z,4.80
2023-04-29T00:40:53.030Z,5.00
2023-04-29T00:43:20.600Z,5.50
2023-04-29T00:45:48.632Z,5.00
2023-04-29T00:48:16.163Z,4.60
2023-04-29T00:50:43.425Z,4.40
2023-04-29T00:53:14.849Z,4.80
2023-04-29T00:55:44.255Z,4.90
2023-04-29T00:58:11.934Z,4.40
2023-04-29T01:00:41.083Z,3.90
2023-04-29T01:03:09.074Z,5.10
2023-04-29T01:05:36.410Z,5.20
2023-04-29T01:08:33.691Z,4.80
2023-04-29T01:11:10.473Z,5.00
2023-04-29T01:13:45.137Z,4.50
2023-04-29T01:16:47.309Z,4.30
2023-04-29T01:19:47.204Z,5.60
2023-04-29T01:22:15.035Z,5.70
2023-04-29T01:24:42.713Z,5.30
2023-04-29T01:27:31.224Z,4.50
2023-04-29T01:30:21.944Z,4.40
2023-04-29T01:33:19.944Z,5.00
2023-04-29T01:36:17.087Z,5.10
2023-04-29T01:39:12.719Z,4.70
2023-04-29T01:42:18.774Z,4.60
2023-04-29T01:44:48.958Z,5.10
2023-04-29T01:47:19.991Z,4.40
2023-04-29T01:49:50.581Z,4.90
2023-04-29T01:52:18.123Z,5.20
2023-04-29T01:54:52.844Z,5.50
2023-04-29T01:57:20.448Z,4.90
2023-04-29T02:00:04.246Z,5.40
2023-04-29T02:02:31.518Z,4.70
2023-04-29T02:05:05.948Z,4.70
2023-04-29T02:07:33.311Z,5.90
2023-04-29T02:10:00.640Z,4.70
2023-04-29T02:12:28.183Z,4.80
2023-04-29T02:14:56.308Z,4.50
2023-04-29T02:17:25.681Z,5.30
2023-04-29T02:19:54.727Z,5.30
2023-04-29T02:22:22.025Z,5.00
2023-04-29T02:24:49.357Z,4.60
2023-04-29T02:27:16.651Z,5.40
2023-04-29T02:29:44.618Z,5.30
2023-04-29T02:32:14.701Z,5.70
2023-04-29T02:34:41.933Z,5.40
2023-04-29T02:37:09.180Z,5.70
2023-04-29T02:39:36.467Z,5.20
2023-04-29T02:42:03.759Z,7.10
2023-04-29T02:44:31.011Z,6.00
2023-04-29T02:46:58.384Z,5.90
2023-04-29T02:49:26.127Z,6.90
2023-04-29T02:51:53.862Z,5.70
2023-04-29T02:54:21.782Z,6.20
2023-04-29T02:56:49.234Z,5.60
2023-04-29T02:59:16.558Z,5.50
2023-04-29T03:01:43.954Z,6.60
2023-04-29T03:04:12.235Z,5.50
2023-04-29T03:06:39.727Z,5.60
2023-04-29T03:09:07.062Z,5.50
2023-04-29T03:11:34.259Z,5.40
2023-04-29T03:14:01.626Z,5.50
2023-04-29T03:16:29.999Z,5.60
2023-04-29T03:18:57.686Z,5.80
2023-04-29T03:21:25.832Z,6.30
2023-04-29T03:23:53.076Z,6.00
2023-04-29T03:26:26.304Z,5.70
2023-04-29T03:28:53.598Z,5.90
2023-04-29T03:31:22.651Z,6.00
2023-04-29T03:33:50.567Z,5.50
2023-04-29T03:36:17.849Z,5.30
2023-04-29T03:38:53.727Z,5.20
2023-04-29T03:41:23.481Z,5.90
2023-04-29T03:43:51.304Z,6.00
2023-04-29T03:46:18.690Z,5.60
2023-04-29T03:48:46.156Z,6.40
2023-04-29T03:51:13.623Z,7.20
2023-04-29T03:53:41.102Z,5.60
2023-04-29T03:56:08.765Z,6.20
2023-04-29T03:58:36.667Z,5.00
2023-04-29T04:01:04.311Z,5.60
2023-04-29T04:03:37.534Z,5.20
2023-04-29T04:06:05.099Z,5.80
2023-04-29T04:08:32.577Z,5.50
2023-04-29T04:11:14.729Z,4.80
2023-04-29T04:13:49.326Z,5.70
2023-04-29T04:16:16.790Z,6.10
2023-04-29T04:18:43.994Z,6.50
2023-04-29T04:21:12.406Z,5.70
2023-04-29T04:23:41.987Z,6.30
2023-04-29T04:26:10.809Z,7.40
2023-04-29T04:28:56.792Z,6.30
2023-04-29T04:31:37.766Z,6.10
2023-04-29T04:34:05.224Z,6.20
2023-04-29T04:36:33.030Z,6.50
2023-04-29T04:39:00.833Z,7.20
2023-04-29T04:41:31.051Z,8.10
2023-04-29T04:43:58.440Z,7.50
2023-04-29T04:46:51.986Z,8.00
2023-04-29T04:49:31.346Z,7.60
2023-04-29T04:51:58.671Z,7.90
2023-04-29T04:54:26.582Z,8.80
2023-04-29T04:57:02.663Z,6.30
2023-04-29T04:59:29.948Z,6.10
2023-04-29T05:01:57.285Z,7.50
2023-04-29T05:04:24.820Z,5.20
2023-04-29T05:06:52.433Z,5.80
2023-04-29T05:09:19.906Z,6.10
2023-04-29T05:11:47.510Z,7.20
2023-04-29T05:14:17.644Z,5.50
2023-04-29T05:16:46.061Z,6.20
2023-04-29T05:19:13.429Z,6.90
2023-04-29T05:21:40.790Z,6.90
2023-04-29T05:24:09.654Z,6.30
2023-04-29T05:26:37.667Z,6.50
2023-04-29T05:29:06.129Z,5.90
2023-04-29T05:31:39.215Z,5.90
2023-04-29T05:34:06.549Z,6.60
2023-04-29T05:36:33.945Z,7.20
2023-04-29T05:39:01.145Z,6.30
2023-04-29T05:41:29.399Z,6.50
2023-04-29T05:44:09.825Z,5.70
2023-04-29T05:46:37.445Z,5.80
2023-04-29T05:49:04.995Z,5.80
2023-04-29T05:51:32.329Z,7.00
2023-04-29T05:53:59.964Z,6.10
2023-04-29T05:56:27.412Z,5.60
2023-04-29T05:58:55.822Z,5.70
2023-04-29T06:01:23.575Z,5.50
2023-04-29T06:03:51.029Z,5.60
2023-04-29T06:06:36.811Z,5.60
2023-04-29T06:09:13.427Z,4.10
2023-04-29T06:11:46.241Z,4.20
2023-04-29T06:14:13.617Z,5.30
2023-04-29T06:16:41.084Z,5.50
2023-04-29T06:19:09.699Z,4.40
2023-04-29T06:21:36.952Z,5.20
2023-04-29T06:24:04.824Z,4.90
2023-04-29T06:26:32.083Z,5.50
2023-04-29T06:28:59.347Z,5.80
2023-04-29T06:31:27.273Z,5.10
2023-04-29T06:33:58.756Z,5.00
2023-04-29T06:36:26.677Z,4.90
2023-04-29T06:39:16.190Z,3.30
2023-04-29T06:42:03.746Z,26.10
2023-04-29T06:44:46.996Z,14.20
2023-04-29T06:47:37.284Z,3.10
2023-04-29T06:50:09.302Z,3.00
2023-04-29T06:52:37.121Z,3.20
2023-04-29T06:55:05.394Z,3.20
2023-04-29T06:57:33.310Z,3.20
2023-04-29T07:00:00.721Z,3.80
2023-04-29T07:02:28.193Z,3.40
2023-04-29T07:04:55.678Z,2.80
2023-04-29T07:07:23.263Z,3.00
2023-04-29T07:09:53.010Z,3.80
2023-04-29T07:12:21.047Z,2.30
2023-04-29T07:14:48.461Z,2.90
2023-04-29T07:17:16.063Z,2.70
2023-04-29T07:19:43.928Z,2.80
2023-04-29T07:22:12.187Z,2.70
2023-04-29T07:24:39.465Z,2.70
2023-04-29T07:27:06.949Z,3.20
2023-04-29T07:29:34.210Z,2.90
2023-04-29T07:32:01.533Z,3.00
2023-04-29T07:34:28.828Z,2.70
2023-04-29T07:36:56.856Z,2.60
2023-04-29T07:39:24.192Z,2.60
2023-04-29T07:41:55.801Z,2.50
2023-04-29T07:44:23.191Z,2.40
2023-04-29T07:46:50.555Z,2.70
2023-04-29T07:49:18.751Z,1.90
2023-04-29T07:51:46.610Z,2.10
2023-04-29T07:54:15.444Z,1.40
2023-04-29T07:56:42.655Z,1.70
2023-04-29T07:59:09.908Z,1.20
2023-04-29T08:01:38.035Z,1.50
2023-04-29T08:04:05.711Z,1.40
2023-04-29T08:06:36.402Z,1.80
2023-04-29T08:09:04.264Z,1.80
2023-04-29T08:11:31.639Z,1.70
2023-04-29T08:13:59.708Z,1.50
2023-04-29T08:16:27.551Z,1.70
2023-04-29T08:18:55.652Z,1.80
2023-04-29T08:21:23.472Z,2.30
2023-04-29T08:23:50.862Z,1.60
2023-04-29T08:26:18.134Z,1.70
2023-04-29T08:28:45.434Z,1.70
2023-04-29T08:31:20.575Z,1.60
2023-04-29T08:33:48.765Z,2.10
2023-04-29T08:36:16.104Z,1.80
2023-04-29T08:38:43.549Z,1.60
2023-04-29T08:41:11.337Z,1.30
2023-04-29T08:43:41.602Z,1.10
2023-04-29T08:46:10.488Z,1.20
2023-04-29T08:48:40.411Z,1.30
2023-04-29T08:51:13.004Z,1.50
2023-04-29T08:53:40.409Z,1.20
2023-04-29T08:56:20.023Z,1.30
2023-04-29T08:58:53.808Z,1.40
2023-04-29T09:01:23.636Z,1.00
2023-04-29T09:03:58.857Z,1.20
2023-04-29T09:06:26.742Z,1.00
2023-04-29T09:08:54.006Z,0.90
2023-04-29T09:11:22.124Z,1.10
2023-04-29T09:13:49.505Z,1.40
2023-04-29T09:16:16.752Z,1.10
2023-04-29T09:18:51.649Z,1.10
2023-04-29T09:21:27.224Z,0.90
2023-04-29T09:23:56.702Z,1.10
2023-04-29T09:26:24.826Z,1.30
2023-04-29T09:29:13.453Z,1.10
2023-04-29T09:31:41.578Z,1.00
2023-04-29T09:34:11.097Z,1.00
2023-04-29T09:36:50.309Z,1.40
2023-04-29T09:39:22.750Z,1.00
2023-04-29T09:41:53.110Z,0.90
2023-04-29T09:44:23.238Z,1.20
2023-04-29T09:47:02.406Z,1.00
2023-04-29T09:49:32.312Z,1.10
2023-04-29T09:52:02.086Z,1.20
2023-04-29T09:54:34.076Z,0.90
2023-04-29T09:57:06.444Z,1.00
2023-04-29T09:59:35.779Z,0.80
2023-04-29T10:02:24.950Z,1.30
2023-04-29T10:04:57.039Z,0.90
2023-04-29T10:07:27.647Z,1.00
2023-04-29T10:09:55.975Z,1.00
2023-04-29T10:12:25.996Z,1.20
2023-04-29T10:15:09.571Z,1.10
2023-04-29T10:17:44.377Z,1.10
2023-04-29T10:20:23.614Z,1.20
2023-04-29T10:22:56.719Z,1.40
2023-04-29T10:25:27.547Z,1.20
2023-04-29T10:27:55.909Z,1.30
2023-04-29T10:30:23.387Z,1.20
2023-04-29T10:32:52.476Z,0.90
2023-04-29T10:35:24.855Z,1.10
2023-04-29T10:37:53.196Z,1.20
2023-04-29T10:40:47.743Z,1.10
2023-04-29T10:43:15.706Z,1.40
2023-04-29T10:45:43.021Z,1.20
2023-04-29T10:48:12.678Z,1.40
2023-04-29T10:50:49.168Z,1.50
2023-04-29T10:53:20.275Z,1.40
2023-04-29T10:55:53.040Z,1.20
2023-04-29T10:58:56.246Z,0.90
2023-04-29T11:01:41.929Z,1.80
2023-04-29T11:04:10.484Z,1.20
2023-04-29T11:06:40.945Z,1.20
2023-04-29T11:09:18.838Z,1.20
2023-04-29T11:12:04.847Z,1.50
2023-04-29T11:14:38.335Z,1.30
2023-04-29T11:17:16.915Z,1.20
2023-04-29T11:19:46.586Z,1.40
2023-04-29T11:22:17.392Z,1.10
2023-04-29T11:24:54.052Z,0.80
2023-04-29T11:27:29.483Z,1.10
2023-04-29T11:29:58.221Z,1.20
2023-04-29T11:32:34.480Z,1.00
2023-04-29T11:35:16.899Z,1.20
2023-04-29T11:37:46.610Z,1.40
2023-04-29T11:40:14.777Z,1.20
2023-04-29T11:42:45.553Z,1.40
2023-04-29T11:45:14.488Z,0.90
2023-04-29T11:47:47.025Z,1.10
2023-04-29T11:50:18.643Z,1.70
2023-04-29T11:52:47.727Z,1.10
2023-04-29T11:55:15.484Z,0.70
2023-04-29T11:57:43.218Z,1.10
2023-04-29T12:00:13.079Z,1.30
2023-04-29T12:02:48.442Z,1.10
2023-04-29T12:05:17.763Z,1.10
2023-04-29T12:07:45.281Z,0.90
2023-04-29T12:10:12.713Z,1.20
2023-04-29T12:12:43.047Z,1.00
2023-04-29T12:15:12.097Z,1.00
2023-04-29T12:17:40.834Z,0.80
2023-04-29T12:20:09.976Z,1.00
2023-04-29T12:22:37.876Z,1.10
2023-04-29T12:25:07.166Z,1.00
2023-04-29T12:27:36.193Z,1.20
2023-04-29T12:30:08.903Z,1.00
2023-04-29T12:32:36.544Z,1.10
2023-04-29T12:35:04.288Z,1.40
2023-04-29T12:37:32.828Z,0.80
2023-04-29T12:40:00.246Z,0.90
2023-04-29T12:42:33.629Z,0.90
2023-04-29T12:45:01.069Z,0.70
2023-04-29T12:47:35.308Z,1.00
2023-04-29T12:50:02.643Z,1.10
2023-04-29T12:52:30.031Z,1.00
2023-04-29T12:54:57.534Z,1.30
2023-04-29T12:57:25.960Z,1.00
2023-04-29T12:59:53.317Z,1.00
2023-04-29T13:02:21.099Z,1.00
2023-04-29T13:04:48.957Z,1.10
2023-04-29T13:07:16.359Z,1.10
2023-04-29T13:09:43.514Z,1.00
2023-04-29T13:12:10.792Z,1.10
2023-04-29T13:14:38.129Z,1.20
2023-04-29T13:17:05.873Z,1.00
2023-04-29T13:19:49.550Z,0.90
2023-04-29T13:22:17.624Z,1.10
2023-04-29T13:24:45.466Z,1.30
2023-04-29T13:27:12.755Z,1.10
2023-04-29T13:29:40.212Z,0.90
2023-04-29T13:32:08.223Z,0.80
2023-04-29T13:34:35.696Z,1.10
2023-04-29T13:37:03.113Z,0.90
2023-04-29T13:39:30.428Z,0.90
2023-04-29T13:41:59.231Z,1.00
2023-04-29T13:44:34.416Z,0.70
2023-04-29T13:47:07.444Z,0.90
2023-04-29T13:50:10.021Z,1.00
2023-04-29T13:59:54.788Z,1.00
2023-04-29T14:02:25.696Z,0.90
2023-04-29T14:04:54.430Z,1.10
2023-04-29T14:07:22.709Z,1.00
2023-04-29T14:09:50.005Z,0.80
2023-04-29T14:12:17.330Z,1.20
2023-04-29T14:14:44.620Z,1.20
2023-04-29T14:17:11.921Z,1.20
2023-04-29T14:19:39.253Z,1.40
2023-04-29T14:22:06.584Z,0.90
2023-04-29T14:24:33.918Z,1.30
2023-04-29T14:27:01.712Z,1.40
2023-04-29T14:29:29.346Z,0.90
2023-04-29T14:31:57.018Z,0.90
2023-04-29T14:34:24.289Z,1.10
2023-04-29T14:36:51.733Z,1.00
2023-04-29T14:39:18.919Z,0.90
2023-04-29T14:41:47.806Z,1.30
2023-04-29T14:44:15.137Z,1.20
2023-04-29T14:46:42.526Z,1.00
2023-04-29T14:49:10.034Z,1.00
2023-04-29T14:51:37.320Z,1.00
2023-04-29T14:54:04.743Z,0.90
2023-04-29T14:56:32.108Z,1.60
2023-04-29T14:58:59.454Z,1.30
2023-04-29T15:01:26.848Z,1.00
2023-04-29T15:03:54.233Z,1.20
2023-04-29T15:06:21.631Z,1.40
2023-04-29T15:08:49.008Z,1.30
2023-04-29T15:11:16.517Z,1.30
2023-04-29T15:13:44.012Z,0.80
2023-04-29T15:16:11.586Z,1.30
2023-04-29T15:18:39.270Z,0.90
2023-04-29T15:21:07.049Z,1.20
2023-04-29T15:23:34.391Z,1.10
2023-04-29T15:26:01.780Z,1.30
2023-04-29T15:28:29.135Z,1.10
2023-04-29T15:30:56.435Z,0.70
2023-04-29T15:33:23.927Z,1.00
2023-04-29T15:35:51.340Z,1.50
2023-04-29T15:38:18.698Z,1.10
2023-04-29T15:40:46.028Z,1.60
2023-04-29T15:43:13.400Z,1.10
2023-04-29T15:45:41.902Z,1.10
2023-04-29T15:48:09.519Z,1.20
2023-04-29T15:50:36.993Z,1.10
2023-04-29T15:53:04.239Z,1.30
2023-04-29T15:55:34.550Z,1.40
2023-04-29T15:58:02.136Z,1.90
2023-04-29T16:00:29.631Z,1.30
2023-04-29T16:02:56.967Z,1.40
2023-04-29T16:05:24.388Z,1.50
2023-04-29T16:07:51.654Z,1.20
2023-04-29T16:10:19.215Z,1.50
2023-04-29T16:12:46.463Z,1.00
2023-04-29T16:15:13.896Z,1.30
2023-04-29T16:17:41.540Z,1.20
2023-04-29T16:20:09.384Z,1.60
2023-04-29T16:22:36.683Z,2.50
2023-04-29T16:25:04.503Z,1.70
2023-04-29T16:27:31.838Z,1.20
2023-04-29T16:29:59.418Z,1.40
2023-04-29T16:32:28.465Z,1.50
2023-04-29T16:34:55.926Z,1.30
2023-04-29T16:37:23.682Z,1.70
2023-04-29T16:39:51.252Z,1.80
2023-04-29T16:42:19.126Z,1.60
2023-04-29T16:44:46.351Z,2.00
2023-04-29T16:47:14.121Z,1.90
2023-04-29T16:49:41.931Z,1.90
2023-04-29T16:52:09.473Z,2.60
2023-04-29T16:54:36.973Z,2.00
2023-04-29T16:57:04.224Z,2.60
2023-04-29T16:59:31.514Z,2.70
2023-04-29T17:02:00.757Z,2.40
2023-04-29T17:04:30.745Z,3.10
2023-04-29T17:07:00.852Z,2.70
2023-04-29T17:09:28.269Z,3.50
2023-04-29T17:11:55.697Z,3.20
2023-04-29T17:14:23.152Z,3.70
2023-04-29T17:16:50.379Z,3.00
2023-04-29T17:19:18.147Z,4.60
2023-04-29T17:21:46.016Z,4.30
2023-04-29T17:24:13.441Z,4.40
2023-04-29T17:26:40.659Z,3.80
2023-04-29T17:29:08.315Z,4.80
2023-04-29T17:31:44.689Z,3.90
2023-04-29T17:34:23.348Z,3.90
2023-04-29T17:36:53.515Z,4.00
2023-04-29T17:39:20.849Z,3.90
2023-04-29T17:41:48.253Z,4.30
2023-04-29T17:44:15.797Z,3.90
2023-04-29T17:46:43.451Z,3.70
2023-04-29T17:49:11.033Z,4.00
2023-04-29T17:51:38.495Z,4.30
2023-04-29T17:54:07.485Z,4.40
2023-04-29T17:56:35.278Z,3.70
2023-04-29T17:59:07.605Z,3.70
2023-04-29T18:01:35.239Z,2.60
2023-04-29T18:04:03.085Z,2.30
2023-04-29T18:06:31.243Z,2.60
2023-04-29T18:08:58.595Z,2.90
2023-04-29T18:11:25.963Z,3.40
2023-04-29T18:13:53.926Z,2.60
2023-04-29T18:16:21.276Z,2.70
2023-04-29T18:18:51.889Z,2.40
2023-04-29T18:21:25.092Z,2.30
2023-04-29T18:23:53.163Z,3.10
2023-04-29T18:26:20.444Z,2.60
2023-04-29T18:28:48.123Z,1.80
2023-04-29T18:31:16.345Z,2.20
2023-04-29T18:33:44.817Z,2.20
2023-04-29T18:36:13.612Z,1.70
2023-04-29T18:38:41.152Z,2.10
2023-04-29T18:41:08.775Z,1.70
2023-04-29T18:43:36.128Z,1.90
2023-04-29T18:46:03.535Z,2.10
2023-04-29T18:48:30.986Z,2.00
2023-04-29T18:51:03.649Z,2.00
2023-04-29T18:53:31.452Z,2.10
2023-04-29T18:55:58.714Z,1.90
2023-04-29T18:58:26.765Z,1.90
2023-04-29T19:00:54.640Z,2.00
2023-04-29T19:03:22.299Z,1.90
2023-04-29T19:05:50.156Z,2.10
2023-04-29T19:08:17.518Z,2.10
2023-04-29T19:10:45.281Z,2.20
2023-04-29T19:13:12.499Z,1.90
2023-04-29T19:15:40.458Z,1.80
2023-04-29T19:18:07.878Z,1.80
2023-04-29T19:20:35.323Z,2.10
2023-04-29T19:23:02.581Z,1.60
2023-04-29T19:25:31.136Z,1.80
2023-04-29T19:27:58.337Z,2.50
2023-04-29T19:30:26.328Z,2.80
2023-04-29T19:32:53.682Z,2.30
2023-04-29T19:35:21.274Z,2.70
2023-04-29T19:37:48.597Z,2.40
2023-04-29T19:40:15.961Z,2.50
2023-04-29T19:42:43.217Z,2.10
2023-04-29T19:45:11.958Z,2.20
2023-04-29T19:47:39.290Z,2.50
2023-04-29T19:50:07.292Z,1.90
2023-04-29T19:52:34.750Z,2.10
2023-04-29T19:55:02.044Z,2.10
2023-04-29T19:57:30.044Z,2.40
2023-04-29T19:59:57.371Z,2.20
2023-04-29T20:02:24.604Z,2.30
2023-04-29T20:04:52.176Z,2.40
2023-04-29T20:07:19.493Z,2.10
2023-04-29T20:09:47.780Z,2.00
2023-04-29T20:12:15.467Z,2.30
2023-04-29T20:14:42.837Z,2.80
2023-04-29T20:17:10.109Z,2.00
2023-04-29T20:19:37.401Z,2.50
2023-04-29T20:22:04.860Z,2.20
2023-04-29T20:24:32.148Z,2.30
2023-04-29T20:26:59.409Z,2.20
2023-04-29T20:29:27.561Z,2.90
2023-04-29T20:31:55.273Z,2.70
2023-04-29T20:34:22.687Z,2.60
2023-04-29T20:36:50.363Z,2.50
2023-04-29T20:39:18.111Z,3.20
2023-04-29T20:41:45.522Z,3.10
2023-04-29T20:44:12.759Z,2.40
2023-04-29T20:46:40.733Z,2.80
2023-04-29T20:49:08.012Z,3.20
2023-04-29T20:51:35.278Z,3.80
2023-04-29T20:54:02.488Z,4.00
2023-04-29T20:56:29.740Z,3.60
2023-04-29T20:58:58.325Z,3.70
2023-04-29T21:01:25.623Z,3.70
2023-04-29T21:03:52.911Z,3.80
2023-04-29T21:06:20.343Z,4.40
2023-04-29T21:08:47.652Z,4.10
2023-04-29T21:11:14.901Z,4.30
2023-04-29T21:13:49.169Z,3.80
2023-04-29T21:16:17.264Z,4.50
2023-04-29T21:18:44.737Z,5.20
2023-04-29T21:21:12.154Z,5.50
2023-04-29T21:23:39.369Z,5.10
2023-04-29T21:26:06.589Z,5.00
2023-04-29T21:28:33.958Z,5.40
2023-04-29T21:31:01.253Z,6.20
2023-04-29T21:33:28.563Z,5.30
2023-04-29T21:35:55.828Z,6.10
2023-04-29T21:38:23.127Z,5.50
2023-04-29T21:40:50.983Z,5.90
2023-04-29T21:43:19.261Z,6.40
2023-04-29T21:45:46.478Z,6.00
2023-04-29T21:48:19.616Z,7.90
2023-04-29T21:50:47.532Z,8.70
2023-04-29T21:53:16.339Z,7.60
2023-04-29T21:55:43.939Z,8.90
2023-04-29T21:58:11.368Z,8.10
2023-04-29T22:00:40.618Z,7.30
2023-04-29T22:03:09.355Z,6.70
2023-04-29T22:05:37.132Z,7.00
2023-04-29T22:08:06.600Z,7.00
2023-04-29T22:10:33.935Z,6.50
2023-04-29T22:13:01.201Z,5.10
2023-04-29T22:15:29.517Z,4.70
2023-04-29T22:17:57.681Z,4.70
2023-04-29T22:20:25.538Z,4.50
2023-04-29T22:22:53.275Z,4.70
2023-04-29T22:25:21.117Z,5.40
2023-04-29T22:27:49.486Z,5.00
2023-04-29T22:30:17.174Z,4.70
2023-04-29T22:32:44.469Z,4.00
2023-04-29T22:35:11.872Z,4.50
2023-04-29T22:37:39.135Z,5.60
2023-04-29T22:40:07.778Z,5.00
2023-04-29T22:42:35.144Z,5.40
2023-04-29T22:45:02.437Z,5.70
2023-04-29T22:47:29.823Z,4.50
2023-04-29T22:49:57.146Z,4.90
2023-04-29T22:52:25.304Z,4.80
2023-04-29T22:54:52.828Z,5.70
2023-04-29T22:57:20.124Z,5.60
2023-04-29T22:59:47.333Z,4.90
2023-04-29T23:02:15.265Z,4.60
2023-04-29T23:04:42.574Z,5.40
2023-04-29T23:07:09.767Z,6.90
2023-04-29T23:09:36.965Z,6.60
2023-04-29T23:12:04.658Z,7.20
2023-04-29T23:14:31.918Z,6.10
2023-04-29T23:16:59.081Z,6.80
2023-04-29T23:19:26.342Z,7.00
2023-04-29T23:21:53.663Z,7.60
2023-04-29T23:24:20.908Z,7.40
2023-04-29T23:26:48.979Z,6.80
2023-04-29T23:29:16.568Z,7.40
2023-04-29T23:31:44.844Z,7.00
2023-04-29T23:34:12.726Z,6.50
2023-04-29T23:36:39.947Z,5.90
2023-04-29T23:39:07.203Z,6.30
2023-04-29T23:41:34.490Z,6.10
2023-04-29T23:44:01.944Z,5.60
2023-04-29T23:46:30.229Z,6.40
2023-04-29T23:48:57.550Z,5.70
2023-04-29T23:51:25.776Z,7.00
2023-04-29T23:53:53.120Z,5.70
2023-04-29T23:56:20.467Z,6.20
2023-04-29T23:58:47.626Z,6.10
